Aviation Digital Data Service (ADDS)

Output produced by METARs form (0020 UTC 31 August 2016)
found at http://www.aviationweather.gov/adds/metars/
 
KDUJ 302353Z AUTO 00000KT 10SM CLR 22/16 A3010 RMK AO2 SLP182 T02170156 10272 20217 58009
KDUJ 302253Z AUTO 27003KT 10SM CLR 23/17 A3010 RMK AO2 SLP185 T02330167
KDUJ 302153Z AUTO 23003KT 10SM CLR 24/17 A3012 RMK AO2 SLP190 T02390172
KDUJ 302053Z AUTO 26006KT 10SM CLR 27/14 A3012 RMK AO2 SLP189 T02720144 56017
KDUJ 301953Z AUTO VRB03KT 10SM CLR 27/12 A3014 RMK AO2 SLP194 T02720117
KDUJ 301853Z AUTO VRB04KT 10SM CLR 27/13 A3016 RMK AO2 SLP199 T02720128
KDUJ 301753Z AUTO VRB03KT 10SM CLR 26/14 A3018 RMK AO2 SLP207 T02560139 10267 20167 58010
KDUJ 301653Z AUTO 36004KT 10SM CLR 26/13 A3019 RMK AO2 SLP211 T02560128
KDUJ 301553Z AUTO 00000KT 10SM CLR 24/15 A3020 RMK AO2 SLP216 T02390150
KDUJ 301453Z AUTO VRB04KT 10SM CLR 23/16 A3021 RMK AO2 SLP218 T02280156 56006
KDUJ 301353Z AUTO 11006KT 10SM CLR 21/15 A3022 RMK AO2 SLP221 T02110150
KDUJ 301253Z AUTO 07005KT 10SM CLR 19/14 A3021 RMK AO2 SLP220 T01890144
KDUJ 301153Z AUTO 06003KT 10SM CLR 17/14 A3023 RMK AO2 SLP226 T01670139 10172 20139 53003
KDUJ 301053Z AUTO 09005KT 8SM CLR 14/12 A3022 RMK AO2 SLP225 T01390122
KDUJ 300953Z AUTO 08005KT 10SM CLR 14/13 A3022 RMK AO2 SLP221 T01440128
KDUJ 300853Z AUTO 08005KT 10SM CLR 15/13 A3022 RMK AO2 SLP221 T01500128 53000
KDUJ 300753Z AUTO 08004KT 10SM CLR 16/13 A3021 RMK AO2 SLP219 T01560133
KDUJ 300653Z AUTO 05003KT 10SM CLR 17/13 A3022 RMK AO2 SLP221 T01670133
KDUJ 300553Z AUTO 06003KT 10SM CLR 17/13 A3022 RMK AO2 SLP220 T01720133 10233 20161 58007
KDUJ 300453Z AUTO 07003KT 10SM CLR 18/13 A3023 RMK AO2 SLP223 T01780133 402780161
KDUJ 300353Z AUTO 00000KT 10SM CLR 17/13 A3023 RMK AO2 SLP226 T01670133
KDUJ 300253Z AUTO 01003KT 10SM CLR 19/13 A3024 RMK AO2 SLP228 T01890128 51010
KDUJ 300153Z AUTO 36005KT 10SM CLR 21/13 A3023 RMK AO2 SLP225 T02110128
KDUJ 300053Z AUTO 36004KT 10SM CLR 22/12 A3023 RMK AO2 SLP224 T02170122
KDUJ 292353Z AUTO 35005KT 10SM CLR 23/12 A3021 RMK AO2 SLP217 T02330117 10278 20233 56003
KDUJ 292253Z AUTO 33006KT 10SM CLR 26/13 A3021 RMK AO2 SLP215 T02560128
KDUJ 292153Z AUTO 33006KT 10SM CLR 27/12 A3021 RMK AO2 SLP216 T02670117
KDUJ 292053Z AUTO 30008KT 10SM CLR 27/12 A3021 RMK AO2 SLP218 T02720117 58013
KDUJ 291953Z AUTO VRB04KT 10SM CLR 28/12 A3023 RMK AO2 SLP222 T02780122
KDUJ 291853Z AUTO 32005KT 10SM CLR 27/12 A3025 RMK AO2 SLP229 T02670122
KDUJ 291753Z AUTO 10SM CLR 27/12 A3026 RMK AO2 SLP232 T02670122 10267 20200 58004
KDUJ 291653Z AUTO 10SM CLR 26/12 A3026 RMK AO2 SLP235 T02610122
KDUJ 291553Z AUTO 35006KT 10SM CLR 25/14 A3027 RMK AO2 SLP239 T02500139
KDUJ 291453Z AUTO 35004KT 10SM CLR 24/17 A3027 RMK AO2 SLP238 T02390167 58001
KDUJ 291353Z AUTO 03004KT 10SM CLR 23/18 A3027 RMK AO2 SLP240 T02280178
KDUJ 291253Z AUTO 02007KT 10SM FEW006 SCT017 21/18 A3027 RMK AO2 SLP241 T02060183
KDUJ 291237Z AUTO 02004KT 8SM BKN005 20/19 A3027 RMK AO2 CIG 003V009 T02000189
KDUJ 291230Z AUTO 36005KT 7SM BKN004 21/19 A3027 RMK AO2 CIG 003V008 T02060189